Time;durP1;ratioP1;P1;durP2;ratioP2;P2;SDS_P1;SDS_P2;PMS_P1;PMS_P2;Temp;Humidity;BMP_temperature;BMP_pressure;BME280_temperature;BME280_humidity;BME280_pressure;Samples;Min_cycle;Max_cycle;Signal;HPM_P1;HPM_P2
2021/12/19 00:01:49;;;;;;;31.30;21.17;;;2.00;99.90;;;;;;4992580;28;20203;-50
2021/12/19 00:09:27;;;;;;;32.20;19.90;;;2.00;99.90;;;;;;4992697;28;20208;-50
2021/12/19 00:11:52;;;;;;;26.07;18.87;;;2.10;99.90;;;;;;4992596;28;20193;-51
2021/12/19 00:14:19;;;;;;;31.70;20.90;;;2.10;99.90;;;;;;4992043;28;20208;-53
2021/12/19 00:16:45;;;;;;;26.80;19.43;;;2.20;99.90;;;;;;4992304;28;20523;-51
2021/12/19 00:19:11;;;;;;;30.00;20.80;;;2.20;99.90;;;;;;4992473;28;20194;-50
2021/12/19 00:21:39;;;;;;;31.03;20.33;;;2.20;99.90;;;;;;4992259;28;20251;-51
2021/12/19 00:24:06;;;;;;;28.03;20.10;;;2.10;99.90;;;;;;4992020;28;20191;-51
2021/12/19 00:26:31;;;;;;;29.67;21.50;;;2.00;99.90;;;;;;4992008;28;20177;-54
2021/12/19 00:28:58;;;;;;;30.87;22.43;;;2.00;99.90;;;;;;4992441;28;20284;-51
2021/12/19 00:31:24;;;;;;;31.90;21.83;;;2.00;99.90;;;;;;4991963;28;20169;-50
2021/12/19 00:33:49;;;;;;;31.23;21.43;;;1.90;99.90;;;;;;4992182;28;20184;-56
2021/12/19 00:36:15;;;;;;;32.50;21.03;;;1.90;99.90;;;;;;4991649;28;20209;-54
2021/12/19 00:38:41;;;;;;;29.53;20.30;;;2.00;99.90;;;;;;4992201;28;20270;-50
2021/12/19 00:41:07;;;;;;;27.70;20.67;;;2.20;99.90;;;;;;4992260;28;20176;-50
2021/12/19 00:46:07;;;;;;;27.00;19.77;;;2.30;99.90;;;;;;5060913;22;20240;-52
2021/12/19 00:48:41;;;;;;;31.63;21.20;;;2.20;99.90;;;;;;5011413;28;20219;-53
2021/12/19 00:51:09;;;;;;;31.03;22.53;;;2.10;99.90;;;;;;5010797;28;20175;-51
2021/12/19 00:53:36;;;;;;;30.40;21.80;;;2.10;99.90;;;;;;5011606;28;20176;-50
2021/12/19 00:56:03;;;;;;;31.00;22.27;;;2.10;99.90;;;;;;5010440;28;20228;-52
2021/12/19 00:58:29;;;;;;;32.03;21.87;;;2.10;99.90;;;;;;5011501;28;20253;-51
2021/12/19 01:00:54;;;;;;;31.90;22.00;;;2.00;99.90;;;;;;4993981;28;20180;-53
2021/12/19 01:03:21;;;;;;;33.30;21.90;;;2.00;99.90;;;;;;5011521;28;20590;-51
2021/12/19 01:05:47;;;;;;;30.10;21.37;;;1.90;99.90;;;;;;5011043;28;20185;-54
2021/12/19 01:08:13;;;;;;;30.30;22.17;;;1.90;99.90;;;;;;5011508;28;20169;-50
2021/12/19 01:10:41;;;;;;;32.37;22.07;;;2.00;99.90;;;;;;5011501;28;20263;-52
2021/12/19 01:13:07;;;;;;;34.57;23.33;;;2.00;99.90;;;;;;4993823;28;20184;-51
2021/12/19 01:15:33;;;;;;;29.93;21.77;;;2.00;99.90;;;;;;5010866;28;20193;-56
2021/12/19 01:18:00;;;;;;;30.80;21.40;;;2.10;99.90;;;;;;5011558;28;20668;-53
2021/12/19 01:20:28;;;;;;;30.83;21.27;;;2.20;99.90;;;;;;5011359;28;20176;-53
2021/12/19 01:22:54;;;;;;;29.93;19.87;;;2.20;99.90;;;;;;5011446;28;20200;-52
2021/12/19 01:25:20;;;;;;;31.03;20.73;;;2.20;99.90;;;;;;5010599;28;20200;-52
2021/12/19 01:27:46;;;;;;;30.23;20.90;;;1.30;99.90;;;;;;5011259;28;20172;-54
2021/12/19 01:30:13;;;;;;;30.73;21.37;;;2.40;99.90;;;;;;5009953;28;20568;-52
2021/12/19 01:32:40;;;;;;;33.83;21.47;;;2.40;99.90;;;;;;5006996;28;20649;-54
2021/12/19 01:35:08;;;;;;;30.93;21.03;;;2.40;99.90;;;;;;5008137;28;20197;-58
2021/12/19 01:37:34;;;;;;;30.17;20.07;;;2.40;99.90;;;;;;5008366;28;20181;-57
2021/12/19 01:40:00;;;;;;;30.87;20.63;;;2.40;99.90;;;;;;5009059;28;20173;-57
2021/12/19 01:42:33;;;;;;;29.33;19.63;;;2.40;99.90;;;;;;5011895;28;20212;-55
2021/12/19 01:44:59;;;;;;;28.23;19.50;;;2.40;99.90;;;;;;5010529;28;20237;-51
2021/12/19 01:47:25;;;;;;;29.23;20.17;;;2.30;99.90;;;;;;5013832;28;20203;-53
2021/12/19 01:49:51;;;;;;;32.67;21.90;;;2.10;99.90;;;;;;5004277;28;20279;-50
2021/12/19 01:52:17;;;;;;;34.90;22.00;;;2.10;99.90;;;;;;5013509;28;20168;-50
2021/12/19 01:54:45;;;;;;;35.67;22.13;;;2.00;99.90;;;;;;5012855;28;20685;-50
2021/12/19 01:57:11;;;;;;;31.73;21.13;;;2.00;99.90;;;;;;5004201;28;20574;-52
2021/12/19 01:59:36;;;;;;;29.43;20.60;;;2.00;99.90;;;;;;5012627;28;20222;-50
2021/12/19 02:02:03;;;;;;;33.93;22.50;;;2.10;99.90;;;;;;5010423;28;20220;-52
2021/12/19 02:04:30;;;;;;;35.37;23.50;;;2.20;99.90;;;;;;5013559;28;20679;-49
2021/12/19 02:06:57;;;;;;;35.33;23.27;;;1.90;99.90;;;;;;5013058;28;20204;-50
2021/12/19 02:09:24;;;;;;;35.20;23.23;;;1.90;99.90;;;;;;5013246;28;20169;-49
2021/12/19 02:11:50;;;;;;;38.00;24.57;;;1.90;99.90;;;;;;5013135;28;20180;-50
2021/12/19 02:14:15;;;;;;;37.77;22.27;;;1.80;99.90;;;;;;5013528;28;20195;-49
2021/12/19 02:16:41;;;;;;;35.73;22.53;;;1.70;99.90;;;;;;5013937;28;20184;-49
2021/12/19 02:19:08;;;;;;;30.80;21.60;;;1.70;99.90;;;;;;4996617;28;20271;-49
2021/12/19 02:21:34;;;;;;;35.20;22.87;;;1.70;99.90;;;;;;5014098;28;20180;-50
2021/12/19 02:24:04;;;;;;;32.40;21.37;;;1.80;99.90;;;;;;5013022;28;20685;-48
2021/12/19 02:26:30;;;;;;;31.13;19.53;;;1.80;99.90;;;;;;5013450;28;20168;-50
2021/12/19 02:28:55;;;;;;;36.80;21.23;;;1.80;99.90;;;;;;5013995;28;20187;-50
2021/12/19 02:31:22;;;;;;;30.10;20.37;;;1.80;99.90;;;;;;5013800;28;20208;-51
2021/12/19 02:34:02;;;;;;;35.00;21.23;;;1.80;99.90;;;;;;5013508;28;20538;-51
2021/12/19 02:36:46;;;;;;;31.53;19.97;;;1.80;99.90;;;;;;5013551;28;20172;-51
2021/12/19 02:39:36;;;;;;;34.13;21.07;;;1.80;99.90;;;;;;5013854;28;20326;-51
2021/12/19 02:50:00;;;;;;;34.67;22.23;;;1.70;99.90;;;;;;5013778;28;20200;-49
2021/12/19 02:52:25;;;;;;;35.00;22.57;;;1.70;99.90;;;;;;5013409;28;20180;-51
2021/12/19 02:54:51;;;;;;;40.60;22.83;;;1.60;99.90;;;;;;5013044;28;20223;-51
2021/12/19 02:57:16;;;;;;;35.77;22.83;;;1.70;99.90;;;;;;5013228;28;20554;-51
2021/12/19 02:59:42;;;;;;;34.03;21.87;;;1.60;99.90;;;;;;5013429;28;20172;-49
2021/12/19 03:02:08;;;;;;;33.00;21.77;;;1.60;99.90;;;;;;5013037;28;20204;-51
2021/12/19 03:04:33;;;;;;;34.13;21.97;;;1.60;99.90;;;;;;5012945;28;20216;-50
2021/12/19 03:06:59;;;;;;;36.50;23.13;;;1.60;99.90;;;;;;5013036;28;20248;-50
2021/12/19 03:10:25;;;;;;;33.37;21.63;;;1.70;99.90;;;;;;5013383;28;20177;-50
2021/12/19 03:20:09;;;;;;;35.40;22.07;;;1.70;99.90;;;;;;5012912;28;20188;-50
2021/12/19 03:22:35;;;;;;;30.00;19.50;;;1.70;99.90;;;;;;5012980;28;20212;-52
2021/12/19 03:25:01;;;;;;;29.13;19.27;;;1.70;99.90;;;;;;5012326;28;20196;-52
2021/12/19 03:27:26;;;;;;;28.30;17.83;;;1.70;99.90;;;;;;5012968;28;20179;-50
2021/12/19 03:29:52;;;;;;;51.70;20.10;;;1.80;99.90;;;;;;5012705;28;20172;-50
2021/12/19 03:32:17;;;;;;;49.63;24.20;;;1.90;99.90;;;;;;5012745;28;20180;-54
2021/12/19 03:34:43;;;;;;;71.70;25.97;;;2.00;99.90;;;;;;5012000;28;20224;-49
2021/12/19 03:37:09;;;;;;;51.03;23.30;;;1.90;99.90;;;;;;5012842;28;20177;-50
2021/12/19 03:39:45;;;;;;;56.27;24.23;;;1.80;99.90;;;;;;5012751;28;20242;-50
2021/12/19 03:42:12;;;;;;;34.73;21.80;;;1.70;99.90;;;;;;5012397;28;20192;-49
2021/12/19 03:44:38;;;;;;;33.63;21.17;;;1.70;99.90;;;;;;5012047;28;20208;-49
2021/12/19 03:47:04;;;;;;;30.13;19.40;;;1.70;99.90;;;;;;5012363;28;20176;-50
2021/12/19 03:49:30;;;;;;;37.63;21.37;;;1.70;99.90;;;;;;5012622;28;20553;-49
2021/12/19 03:51:55;;;;;;;42.17;23.07;;;1.70;99.90;;;;;;5012353;28;20208;-50
2021/12/19 03:54:21;;;;;;;38.47;21.63;;;1.70;99.90;;;;;;5011380;28;20230;-53
2021/12/19 03:56:46;;;;;;;36.30;22.63;;;1.70;99.90;;;;;;5012104;28;20180;-50
2021/12/19 03:59:12;;;;;;;32.10;19.77;;;1.70;99.90;;;;;;5012466;28;20267;-49
2021/12/19 04:01:38;;;;;;;30.20;19.27;;;1.70;99.90;;;;;;5011995;28;20204;-49
2021/12/19 04:04:03;;;;;;;29.77;19.40;;;1.70;99.90;;;;;;5011724;28;20197;-55
2021/12/19 04:06:29;;;;;;;28.77;18.03;;;1.70;99.90;;;;;;4994274;28;20585;-50
2021/12/19 04:08:56;;;;;;;30.20;17.93;;;1.80;99.90;;;;;;5012153;28;20177;-50
2021/12/19 04:11:24;;;;;;;25.77;16.63;;;1.90;99.90;;;;;;5012254;28;20563;-53
2021/12/19 04:13:50;;;;;;;24.17;15.03;;;1.90;99.90;;;;;;5011734;28;20533;-54
2021/12/19 04:16:15;;;;;;;31.83;18.60;;;1.80;99.90;;;;;;5010924;28;20180;-50
2021/12/19 04:18:41;;;;;;;27.50;16.77;;;1.90;99.90;;;;;;4994499;28;20177;-50
2021/12/19 04:21:06;;;;;;;29.13;17.63;;;1.90;99.90;;;;;;5011720;28;20240;-54
2021/12/19 04:23:33;;;;;;;31.47;19.03;;;1.90;99.90;;;;;;5012011;28;20246;-50
2021/12/19 04:25:58;;;;;;;24.00;16.17;;;1.90;99.90;;;;;;5011297;28;20184;-50
2021/12/19 04:28:24;;;;;;;23.57;15.90;;;2.00;99.90;;;;;;5011918;28;20172;-51
2021/12/19 04:30:50;;;;;;;25.13;16.07;;;2.00;99.90;;;;;;5011673;28;20168;-50
2021/12/19 04:33:16;;;;;;;24.13;15.87;;;2.10;99.90;;;;;;5011933;28;20263;-52
2021/12/19 04:35:44;;;;;;;21.87;15.03;;;2.00;99.90;;;;;;5011343;28;20215;-51
2021/12/19 04:59:51;;;;;;;17.03;12.33;;;1.90;99.90;;;;;;5011757;28;20222;-52
2021/12/19 05:05:19;;;;;;;19.80;12.23;;;2.00;99.90;;;;;;5011097;28;20620;-50
2021/12/19 05:15:50;;;;;;;14.33;10.10;;;1.90;99.90;;;;;;5010994;28;20195;-50
2021/12/19 05:18:16;;;;;;;16.93;10.97;;;2.00;99.90;;;;;;5014563;28;20254;-49
2021/12/19 05:20:52;;;;;;;15.13;10.23;;;2.00;99.90;;;;;;5015210;28;20180;-50
2021/12/19 05:23:25;;;;;;;16.47;10.37;;;1.90;99.90;;;;;;5015305;28;20223;-50
2021/12/19 05:25:51;;;;;;;14.30;10.60;;;2.00;99.90;;;;;;5014646;28;20192;-53
2021/12/19 05:28:17;;;;;;;16.13;10.60;;;2.00;99.90;;;;;;5014996;28;20173;-51
2021/12/19 05:30:42;;;;;;;14.57;10.17;;;1.90;99.90;;;;;;5015183;28;20195;-53
2021/12/19 05:33:08;;;;;;;17.37;11.90;;;2.00;99.90;;;;;;5014904;28;20168;-50
2021/12/19 05:45:11;;;;;;;19.17;12.43;;;2.10;99.90;;;;;;4972906;28;20938;-52
2021/12/19 05:46:58;;;;;;;18.30;11.80;;;2.10;99.90;;;;;;5014507;28;20219;-50
2021/12/19 05:49:24;;;;;;;18.50;11.97;;;2.00;99.90;;;;;;5014685;28;20172;-52
2021/12/19 05:51:49;;;;;;;21.07;12.80;;;1.90;99.90;;;;;;5014817;28;20164;-52
2021/12/19 05:54:15;;;;;;;22.13;13.60;;;2.00;99.90;;;;;;5014089;28;20798;-49
2021/12/19 05:56:43;;;;;;;19.60;13.10;;;1.90;99.90;;;;;;5014364;28;20181;-51
2021/12/19 05:59:08;;;;;;;18.83;11.50;;;1.90;99.90;;;;;;5014028;28;20175;-53
2021/12/19 06:01:35;;;;;;;18.07;11.17;;;1.90;99.90;;;;;;5014077;28;20176;-50
2021/12/19 06:04:00;;;;;;;16.83;11.33;;;2.00;99.90;;;;;;5014330;28;20172;-51
2021/12/19 06:06:26;;;;;;;16.97;11.07;;;2.00;99.90;;;;;;5013901;28;20206;-51
2021/12/19 06:08:53;;;;;;;19.73;12.17;;;2.00;99.90;;;;;;5014362;28;20511;-49
2021/12/19 06:11:18;;;;;;;17.03;10.87;;;2.10;99.90;;;;;;5013148;28;20176;-53
2021/12/19 06:13:44;;;;;;;14.90;10.60;;;2.20;99.90;;;;;;5014290;28;20557;-50
2021/12/19 06:16:10;;;;;;;15.20;10.47;;;2.10;99.90;;;;;;5013889;28;20621;-50
2021/12/19 06:18:35;;;;;;;14.77;10.00;;;2.00;99.90;;;;;;5014192;28;20584;-51
2021/12/19 06:21:01;;;;;;;13.90;8.73;;;2.00;99.90;;;;;;5014111;28;20183;-50
2021/12/19 06:23:27;;;;;;;14.83;9.43;;;2.00;99.90;;;;;;5013712;28;20223;-52
2021/12/19 06:25:53;;;;;;;14.83;9.37;;;2.00;99.90;;;;;;5013480;28;20192;-52
2021/12/19 06:28:19;;;;;;;13.20;9.23;;;2.10;99.90;;;;;;5013536;28;20169;-51
2021/12/19 06:30:46;;;;;;;14.27;9.43;;;2.10;99.90;;;;;;4996411;28;20176;-53
2021/12/19 06:33:11;;;;;;;12.97;9.50;;;2.10;99.90;;;;;;5013651;28;20222;-53
2021/12/19 06:35:37;;;;;;;14.87;9.33;;;2.10;99.90;;;;;;5013400;28;20282;-53
2021/12/19 06:38:03;;;;;;;12.90;8.90;;;2.10;99.90;;;;;;5013748;28;20173;-54
2021/12/19 06:40:29;;;;;;;12.30;8.37;;;2.10;99.90;;;;;;5013621;28;20501;-50
2021/12/19 06:42:55;;;;;;;11.77;8.03;;;2.00;99.90;;;;;;5013726;28;20262;-50
2021/12/19 06:45:22;;;;;;;15.13;9.03;;;2.10;99.90;;;;;;5012900;28;20661;-50
2021/12/19 06:47:48;;;;;;;12.53;8.70;;;2.00;99.90;;;;;;5013751;28;20204;-50
2021/12/19 06:50:16;;;;;;;13.00;8.73;;;2.00;99.90;;;;;;5013515;28;20168;-51
2021/12/19 06:52:42;;;;;;;11.07;7.80;;;2.00;99.90;;;;;;5037072;22;20236;-52
2021/12/19 06:55:09;;;;;;;11.03;8.00;;;2.00;99.90;;;;;;5012130;28;20653;-50
2021/12/19 06:57:37;;;;;;;10.23;7.63;;;2.10;99.90;;;;;;4995645;28;20295;-50
2021/12/19 07:00:08;;;;;;;9.53;7.10;;;2.00;99.90;;;;;;5013416;28;20181;-51
2021/12/19 07:02:34;;;;;;;10.57;7.37;;;2.00;99.90;;;;;;5012452;28;20224;-52
2021/12/19 07:04:59;;;;;;;9.83;7.57;;;2.00;99.90;;;;;;5012637;28;20690;-52
2021/12/19 07:07:25;;;;;;;10.20;6.70;;;2.00;99.90;;;;;;5012994;28;20238;-50
2021/12/19 07:09:50;;;;;;;8.60;6.60;;;2.20;99.90;;;;;;5013340;28;20573;-52
2021/12/19 07:12:17;;;;;;;8.07;6.43;;;2.30;99.90;;;;;;5013067;28;20204;-52
2021/12/19 07:14:43;;;;;;;9.27;6.47;;;2.30;99.90;;;;;;5012631;28;20622;-50
2021/12/19 07:17:10;;;;;;;9.20;6.33;;;2.40;99.90;;;;;;5013295;28;20255;-54
2021/12/19 07:19:36;;;;;;;7.97;6.03;;;2.30;99.90;;;;;;5012969;28;20796;-52
2021/12/19 07:22:01;;;;;;;8.63;6.40;;;2.40;99.90;;;;;;5012692;28;20296;-50
2021/12/19 07:24:27;;;;;;;7.47;5.97;;;2.30;99.90;;;;;;5011575;28;20617;-51
2021/12/19 07:26:53;;;;;;;9.67;6.27;;;2.30;99.90;;;;;;5012651;28;20176;-52
2021/12/19 07:29:18;;;;;;;7.53;5.53;;;2.30;99.90;;;;;;5012828;28;20176;-51
2021/12/19 07:31:44;;;;;;;7.87;6.20;;;2.40;99.90;;;;;;5012930;28;20172;-53
2021/12/19 07:34:10;;;;;;;8.60;6.47;;;2.40;99.90;;;;;;5012513;28;20222;-51
2021/12/19 07:36:41;;;;;;;7.77;6.10;;;2.40;99.90;;;;;;5012128;28;20179;-49
2021/12/19 07:39:12;;;;;;;8.80;5.90;;;2.50;99.90;;;;;;5012261;28;20176;-52
2021/12/19 07:41:37;;;;;;;8.20;6.10;;;2.40;99.90;;;;;;5012245;28;20581;-53
2021/12/19 07:44:03;;;;;;;8.17;6.03;;;2.30;99.90;;;;;;5012471;28;20246;-50
2021/12/19 07:46:29;;;;;;;9.60;6.63;;;2.20;99.90;;;;;;5012527;28;20176;-50
2021/12/19 07:48:54;;;;;;;8.33;5.80;;;2.20;99.90;;;;;;5013013;28;20258;-52
2021/12/19 07:51:20;;;;;;;8.70;6.40;;;2.10;99.90;;;;;;5012740;28;20549;-54
2021/12/19 07:53:46;;;;;;;10.97;6.60;;;2.10;99.90;;;;;;5012529;28;20224;-50
2021/12/19 07:56:11;;;;;;;8.07;6.33;;;2.20;99.90;;;;;;5012158;28;20550;-51
2021/12/19 07:58:37;;;;;;;9.67;6.27;;;2.20;99.90;;;;;;5012266;28;20177;-52
2021/12/19 08:01:03;;;;;;;8.93;6.73;;;2.20;99.90;;;;;;5011342;28;20188;-51
2021/12/19 08:03:28;;;;;;;8.57;6.03;;;2.20;99.90;;;;;;5011936;28;20208;-50
2021/12/19 08:05:54;;;;;;;9.33;7.00;;;2.20;99.90;;;;;;5011957;28;20263;-53
2021/12/19 08:08:26;;;;;;;8.23;6.13;;;2.20;99.90;;;;;;5012006;28;20177;-50
2021/12/19 08:13:37;;;;;;;8.00;5.93;;;2.30;99.90;;;;;;5012274;28;20741;-50
2021/12/19 08:16:02;;;;;;;8.50;6.67;;;2.30;99.90;;;;;;5011335;28;20181;-51
2021/12/19 08:18:28;;;;;;;9.23;6.63;;;2.30;99.90;;;;;;5012041;28;20179;-51
2021/12/19 08:20:53;;;;;;;9.80;6.67;;;2.20;99.90;;;;;;5011980;28;20188;-52
2021/12/19 08:23:19;;;;;;;8.20;5.60;;;2.20;99.90;;;;;;5011964;28;20208;-48
2021/12/19 08:25:45;;;;;;;7.53;5.73;;;2.30;99.90;;;;;;5011297;28;20658;-50
2021/12/19 08:28:10;;;;;;;8.27;6.27;;;2.30;99.90;;;;;;5011961;28;20173;-50
2021/12/19 08:30:36;;;;;;;8.53;5.67;;;2.30;99.90;;;;;;5011585;28;20204;-49
2021/12/19 08:33:01;;;;;;;7.73;6.40;;;2.40;99.90;;;;;;5011851;28;20196;-49
2021/12/19 08:35:27;;;;;;;8.50;6.17;;;2.40;99.90;;;;;;5011351;28;20542;-51
2021/12/19 08:37:53;;;;;;;7.97;6.00;;;2.30;99.90;;;;;;5011752;28;20172;-50
2021/12/19 08:40:18;;;;;;;7.60;5.43;;;2.30;99.90;;;;;;5011805;28;20173;-50
2021/12/19 08:42:44;;;;;;;7.53;5.63;;;2.20;99.90;;;;;;5011447;28;20669;-51
2021/12/19 08:45:10;;;;;;;8.20;5.50;;;2.10;99.90;;;;;;5011142;28;20169;-51
2021/12/19 08:47:36;;;;;;;6.93;5.50;;;2.20;99.90;;;;;;5011546;28;20175;-52
2021/12/19 08:50:04;;;;;;;9.47;5.77;;;2.20;99.90;;;;;;5011699;28;20605;-53
2021/12/19 08:52:30;;;;;;;6.90;5.47;;;2.20;99.90;;;;;;5014940;28;20659;-52
2021/12/19 08:54:57;;;;;;;8.33;5.70;;;2.20;99.90;;;;;;5015382;28;20184;-50
2021/12/19 08:57:22;;;;;;;8.50;5.90;;;2.20;99.90;;;;;;5015846;28;20204;-54
2021/12/19 08:59:48;;;;;;;6.50;5.40;;;2.20;99.90;;;;;;5015517;28;20211;-50
2021/12/19 09:02:13;;;;;;;8.53;6.33;;;3.80;99.90;;;;;;5014748;28;20215;-50
2021/12/19 09:04:39;;;;;;;7.00;5.23;;;2.20;99.90;;;;;;5014704;28;20274;-55
2021/12/19 09:07:04;;;;;;;6.57;5.33;;;2.00;99.90;;;;;;5015556;28;20272;-51
2021/12/19 09:09:30;;;;;;;7.17;5.03;;;1.90;99.90;;;;;;4997872;28;20248;-50
2021/12/19 09:11:56;;;;;;;7.67;5.77;;;1.90;99.90;;;;;;4995877;28;20260;-53
2021/12/19 09:14:21;;;;;;;7.70;5.60;;;2.00;99.90;;;;;;5002583;28;20199;-53
2021/12/19 09:16:47;;;;;;;9.00;5.80;;;2.00;99.90;;;;;;5014884;28;20260;-49
2021/12/19 09:19:14;;;;;;;9.20;6.83;;;2.00;99.90;;;;;;5015254;28;20176;-50
2021/12/19 09:21:40;;;;;;;9.23;6.03;;;2.10;99.90;;;;;;5014904;28;20256;-50
2021/12/19 09:24:05;;;;;;;6.93;5.17;;;2.20;99.90;;;;;;5014882;28;20302;-50
2021/12/19 09:26:31;;;;;;;7.50;5.70;;;2.10;99.90;;;;;;5014746;28;20207;-51
2021/12/19 09:28:56;;;;;;;7.87;6.00;;;2.00;99.90;;;;;;5013842;28;20176;-51
2021/12/19 09:31:22;;;;;;;8.87;5.40;;;2.00;99.90;;;;;;4995725;28;20177;-51
2021/12/19 09:33:48;;;;;;;10.00;7.80;;;2.00;99.90;;;;;;4998280;28;20197;-49
2021/12/19 09:36:14;;;;;;;7.90;6.40;;;2.10;99.90;;;;;;5010332;28;20188;-49
2021/12/19 09:38:41;;;;;;;7.87;6.03;;;2.10;99.90;;;;;;4995668;28;20197;-50
2021/12/19 09:41:13;;;;;;;7.70;5.70;;;2.00;99.90;;;;;;5001523;28;20169;-49
2021/12/19 09:43:44;;;;;;;7.47;6.20;;;1.90;99.90;;;;;;5014553;28;20208;-44
2021/12/19 09:46:15;;;;;;;9.67;7.83;;;1.90;99.90;;;;;;5014444;28;20171;-52
2021/12/19 09:48:43;;;;;;;9.27;7.60;;;3.30;99.90;;;;;;5014812;28;20183;-50
2021/12/19 09:51:10;;;;;;;8.20;6.63;;;1.90;99.90;;;;;;5014601;28;20255;-50
2021/12/19 09:53:37;;;;;;;8.50;7.27;;;2.00;99.90;;;;;;5005693;28;20213;-50
2021/12/19 09:56:03;;;;;;;8.40;7.00;;;2.00;99.90;;;;;;4994161;28;20260;-53
2021/12/19 09:58:33;;;;;;;7.67;6.03;;;2.00;99.90;;;;;;5011503;28;20179;-53
2021/12/19 10:01:01;;;;;;;9.07;6.73;;;2.00;99.90;;;;;;4988359;28;20189;-51
2021/12/19 10:03:27;;;;;;;9.03;6.90;;;2.00;99.90;;;;;;5001048;28;20205;-51
2021/12/19 10:06:31;;;;;;;8.60;6.57;;;2.00;99.90;;;;;;5002834;28;20203;-50
2021/12/19 10:09:15;;;;;;;8.87;6.97;;;1.90;99.90;;;;;;4934726;29;20179;-51
2021/12/19 10:14:24;;;;;;;12.70;9.63;;;1.80;99.90;;;;;;4933969;29;20207;-50
2021/12/19 10:16:50;;;;;;;8.33;6.90;;;1.80;99.90;;;;;;4933952;29;20182;-53
2021/12/19 10:19:16;;;;;;;8.50;7.33;;;2.00;99.90;;;;;;4934028;29;20688;-52
2021/12/19 10:21:41;;;;;;;8.87;7.17;;;2.00;99.90;;;;;;4934376;29;20190;-51
2021/12/19 10:24:09;;;;;;;9.17;7.37;;;1.90;99.90;;;;;;4933581;29;20673;-50
2021/12/19 10:26:43;;;;;;;8.37;6.90;;;2.00;99.90;;;;;;4933971;29;20183;-53
2021/12/19 10:29:10;;;;;;;8.80;7.07;;;2.00;99.90;;;;;;4934154;29;20805;-53
2021/12/19 10:31:36;;;;;;;8.13;6.93;;;1.90;99.90;;;;;;4933644;29;20187;-49
2021/12/19 10:34:22;;;;;;;9.10;6.93;;;1.90;99.90;;;;;;4933651;29;20230;-50
2021/12/19 10:36:48;;;;;;;8.90;7.23;;;1.90;99.90;;;;;;4933165;29;20187;-49
2021/12/19 10:39:16;;;;;;;8.83;7.10;;;1.80;99.90;;;;;;4959203;28;20263;-51
2021/12/19 10:41:43;;;;;;;8.93;7.07;;;1.90;99.90;;;;;;5013868;28;20259;-49
2021/12/19 10:45:29;;;;;;;8.67;7.13;;;1.90;99.90;;;;;;5013006;28;20180;-51
2021/12/19 10:47:16;;;;;;;10.13;7.40;;;1.90;99.90;;;;;;5013074;28;20199;-51
2021/12/19 10:49:42;;;;;;;9.37;7.67;;;1.90;99.90;;;;;;5013546;28;20660;-50
2021/12/19 10:52:07;;;;;;;9.23;7.17;;;1.80;99.90;;;;;;5013378;28;20181;-51
2021/12/19 10:54:35;;;;;;;9.10;6.93;;;1.80;99.90;;;;;;5012970;28;20208;-50
2021/12/19 10:57:12;;;;;;;8.17;6.87;;;1.90;99.90;;;;;;5013538;28;20172;-51
2021/12/19 10:59:38;;;;;;;8.67;7.33;;;1.80;99.90;;;;;;5013309;28;20258;-50
2021/12/19 11:02:04;;;;;;;8.50;6.93;;;1.80;99.90;;;;;;5013276;28;20235;-52
2021/12/19 11:04:35;;;;;;;8.43;6.67;;;1.80;99.90;;;;;;5012897;28;20188;-54
2021/12/19 11:07:02;;;;;;;8.80;7.33;;;1.90;99.90;;;;;;5013370;28;20192;-50
2021/12/19 11:09:34;;;;;;;7.77;6.70;;;2.00;99.90;;;;;;5013160;28;20179;-51
2021/12/19 11:12:03;;;;;;;8.53;7.23;;;2.10;99.90;;;;;;5013202;28;20169;-50
2021/12/19 11:14:40;;;;;;;6.80;6.10;;;2.20;99.90;;;;;;5011975;28;20534;-50
2021/12/19 11:17:09;;;;;;;7.10;6.40;;;2.20;99.90;;;;;;5012891;28;20175;-52
2021/12/19 11:19:36;;;;;;;7.50;6.33;;;2.00;99.90;;;;;;5013149;28;20165;-50
2021/12/19 11:22:03;;;;;;;8.33;6.83;;;1.90;99.90;;;;;;5012695;28;20216;-53
2021/12/19 11:24:28;;;;;;;8.70;6.73;;;1.80;99.90;;;;;;5012730;28;20193;-54
2021/12/19 11:26:58;;;;;;;7.30;6.30;;;1.80;99.90;;;;;;5012561;28;20277;-51
2021/12/19 11:29:24;;;;;;;7.30;6.40;;;1.90;99.90;;;;;;5012820;28;20180;-50
2021/12/19 11:31:57;;;;;;;8.50;6.93;;;1.90;99.90;;;;;;5012624;28;20168;-51
2021/12/19 11:34:28;;;;;;;8.43;6.53;;;1.90;99.90;;;;;;5012454;28;20235;-52
2021/12/19 11:37:10;;;;;;;7.93;7.00;;;1.90;99.90;;;;;;5012650;28;20173;-50
2021/12/19 11:39:42;;;;;;;8.77;6.60;;;1.90;99.90;;;;;;5012534;28;20251;-50
2021/12/19 11:42:14;;;;;;;8.07;6.60;;;1.80;99.90;;;;;;5012665;28;20291;-52
2021/12/19 11:44:59;;;;;;;9.23;7.53;;;1.80;99.90;;;;;;4999162;28;20193;-50
2021/12/19 11:47:55;;;;;;;10.40;7.83;;;1.70;99.90;;;;;;4993168;28;20173;-50
2021/12/19 11:50:30;;;;;;;10.43;8.17;;;1.70;99.90;;;;;;4992791;28;20172;-50
2021/12/19 11:53:03;;;;;;;10.30;8.30;;;1.60;99.90;;;;;;5005280;28;20215;-52
2021/12/19 11:55:50;;;;;;;10.47;8.57;;;1.70;99.90;;;;;;5012066;28;20185;-51
2021/12/19 11:58:23;;;;;;;9.23;7.93;;;1.60;99.90;;;;;;4998907;28;20180;-48
2021/12/19 12:00:56;;;;;;;10.43;8.63;;;1.70;99.90;;;;;;5001047;28;20189;-50
2021/12/19 12:03:25;;;;;;;11.13;8.83;;;1.80;99.90;;;;;;5003958;28;20629;-50
2021/12/19 12:05:52;;;;;;;11.20;8.87;;;1.80;99.90;;;;;;5003602;28;20177;-50
2021/12/19 12:08:20;;;;;;;11.03;8.97;;;1.80;99.90;;;;;;5002137;28;20176;-49
2021/12/19 12:13:28;;;;;;;16.43;12.57;;;1.60;99.90;;;;;;5006945;28;20216;-51
2021/12/19 12:16:07;;;;;;;13.43;10.87;;;1.70;99.90;;;;;;5011791;28;20180;-50
2021/12/19 12:18:38;;;;;;;9.13;8.00;;;1.80;99.90;;;;;;5012729;28;20177;-53
2021/12/19 12:21:26;;;;;;;10.43;8.13;;;1.90;99.90;;;;;;4994591;28;20650;-50
2021/12/19 12:24:11;;;;;;;10.93;8.77;;;1.80;99.90;;;;;;5011981;28;20240;-50
2021/12/19 12:26:43;;;;;;;12.10;9.60;;;1.90;99.90;;;;;;5011411;28;20219;-52
2021/12/19 12:29:10;;;;;;;14.93;9.83;;;2.10;99.90;;;;;;5012271;28;20172;-51
2021/12/19 12:31:36;;;;;;;9.73;8.43;;;2.10;99.90;;;;;;5011923;28;20188;-50
2021/12/19 12:34:06;;;;;;;12.33;9.93;;;2.00;99.90;;;;;;5011980;28;20200;-51
2021/12/19 12:36:32;;;;;;;12.90;9.83;;;2.10;99.90;;;;;;4994214;28;20180;-51
2021/12/19 12:38:58;;;;;;;10.47;8.80;;;1.90;99.90;;;;;;5012005;28;20187;-50
2021/12/19 12:44:09;;;;;;;12.20;9.67;;;1.60;99.90;;;;;;5011892;28;20712;-51
2021/12/19 12:46:34;;;;;;;11.83;10.07;;;1.70;99.90;;;;;;5011740;28;20263;-52
2021/12/19 12:49:05;;;;;;;12.47;9.83;;;0.80;99.90;;;;;;5011841;28;20285;-52
2021/12/19 12:51:35;;;;;;;11.20;9.37;;;1.90;99.90;;;;;;5011907;28;20200;-50
2021/12/19 12:54:09;;;;;;;12.97;10.00;;;2.00;99.90;;;;;;5031782;22;20301;-58
2021/12/19 12:56:42;;;;;;;9.43;8.30;;;2.10;99.90;;;;;;4991770;28;20177;-58
2021/12/19 12:59:09;;;;;;;12.00;9.47;;;2.00;99.90;;;;;;4992106;28;20184;-59
2021/12/19 13:01:54;;;;;;;12.40;10.43;;;2.10;99.90;;;;;;4992236;28;20280;-56
2021/12/19 13:04:26;;;;;;;13.47;10.43;;;2.00;99.90;;;;;;4992295;28;20201;-52
2021/12/19 13:07:14;;;;;;;14.03;11.30;;;1.80;99.90;;;;;;4992123;28;20199;-58
2021/12/19 13:09:49;;;;;;;11.17;9.53;;;1.80;99.90;;;;;;4993379;28;20197;-58
2021/12/19 13:12:25;;;;;;;11.23;9.13;;;1.80;99.90;;;;;;5000073;28;20183;-58
2021/12/19 13:14:52;;;;;;;11.90;9.67;;;1.70;99.90;;;;;;4999121;28;20573;-54
2021/12/19 13:17:24;;;;;;;13.17;11.10;;;1.70;99.90;;;;;;4999908;28;20287;-60
2021/12/19 13:20:01;;;;;;;12.27;10.30;;;1.80;99.90;;;;;;5000653;28;20649;-55
2021/12/19 13:22:35;;;;;;;13.90;11.00;;;1.80;99.90;;;;;;4998467;28;20193;-56
2021/12/19 13:25:12;;;;;;;11.27;9.47;;;1.80;99.90;;;;;;4999127;28;20276;-54
2021/12/19 13:27:43;;;;;;;11.43;9.47;;;1.70;99.90;;;;;;4999755;28;20201;-54
2021/12/19 13:30:24;;;;;;;12.00;9.97;;;1.70;99.90;;;;;;5000696;28;20179;-53
2021/12/19 13:32:51;;;;;;;12.13;9.97;;;1.70;99.90;;;;;;4999068;28;20177;-55
2021/12/19 13:35:27;;;;;;;12.63;10.57;;;1.70;99.90;;;;;;4999192;28;20200;-55
2021/12/19 13:38:04;;;;;;;12.53;10.63;;;1.60;99.90;;;;;;5000866;28;20721;-56
2021/12/19 13:40:36;;;;;;;12.53;10.03;;;1.60;99.90;;;;;;5000887;28;20411;-49
2021/12/19 13:43:14;;;;;;;13.27;11.17;;;1.60;99.90;;;;;;5000732;28;20201;-53
2021/12/19 13:45:50;;;;;;;13.20;10.30;;;1.60;99.90;;;;;;5004319;28;20197;-57
2021/12/19 13:48:19;;;;;;;12.57;10.80;;;1.70;99.90;;;;;;4987195;28;20601;-57
2021/12/19 13:50:52;;;;;;;13.57;11.50;;;1.80;99.90;;;;;;4975739;28;20170;-58
2021/12/19 13:53:18;;;;;;;13.80;11.57;;;1.80;99.90;;;;;;4985279;28;20185;-55
2021/12/19 13:55:49;;;;;;;14.20;11.07;;;1.70;99.90;;;;;;4995867;28;20675;-58
2021/12/19 13:58:17;;;;;;;14.90;12.17;;;1.50;99.90;;;;;;4999941;28;20172;-51
2021/12/19 14:00:46;;;;;;;13.47;11.90;;;1.50;99.90;;;;;;5003519;28;20573;-55
2021/12/19 14:03:12;;;;;;;14.63;11.87;;;1.50;99.90;;;;;;5000541;28;20189;-57
2021/12/19 14:05:43;;;;;;;13.43;11.30;;;1.60;99.90;;;;;;5003811;28;20196;-58
2021/12/19 14:08:23;;;;;;;14.20;11.53;;;1.60;99.90;;;;;;4987645;28;20168;-51